sensor_id;sensor_type;location;lat;lon;timestamp;temperature;humidity
63435;DHT22;68814;50.872;5.306;2023-11-19T00:00:26;13.10;99.90
63435;DHT22;68814;50.872;5.306;2023-11-19T00:02:52;13.10;99.90
63435;DHT22;68814;50.872;5.306;2023-11-19T00:05:18;13.00;99.90
63435;DHT22;68814;50.872;5.306;2023-11-19T00:07:44;13.10;99.90
63435;DHT22;68814;50.872;5.306;2023-11-19T00:10:11;13.10;99.90
63435;DHT22;68814;50.872;5.306;2023-11-19T00:12:38;13.10;99.90
63435;DHT22;68814;50.872;5.306;2023-11-19T00:15:05;13.10;99.90
63435;DHT22;68814;50.872;5.306;2023-11-19T00:17:32;13.10;99.90
63435;DHT22;68814;50.872;5.306;2023-11-19T00:20:06;13.10;99.90
63435;DHT22;68814;50.872;5.306;2023-11-19T00:22:32;13.10;99.90
63435;DHT22;68814;50.872;5.306;2023-11-19T00:24:58;13.10;99.90
63435;DHT22;68814;50.872;5.306;2023-11-19T00:27:25;13.10;99.90
63435;DHT22;68814;50.872;5.306;2023-11-19T00:29:50;13.10;99.90
63435;DHT22;68814;50.872;5.306;2023-11-19T00:32:16;13.20;99.90
63435;DHT22;68814;50.872;5.306;2023-11-19T00:34:44;13.20;99.90
63435;DHT22;68814;50.872;5.306;2023-11-19T00:37:10;13.20;99.90
63435;DHT22;68814;50.872;5.306;2023-11-19T00:39:35;13.20;99.90
63435;DHT22;68814;50.872;5.306;2023-11-19T00:42:01;13.20;99.90
63435;DHT22;68814;50.872;5.306;2023-11-19T00:44:27;13.20;99.90
63435;DHT22;68814;50.872;5.306;2023-11-19T00:46:52;13.20;99.90
63435;DHT22;68814;50.872;5.306;2023-11-19T00:49:18;13.20;99.90
63435;DHT22;68814;50.872;5.306;2023-11-19T00:51:43;13.20;99.90
63435;DHT22;68814;50.872;5.306;2023-11-19T00:54:11;13.20;99.90
63435;DHT22;68814;50.872;5.306;2023-11-19T00:56:36;13.30;99.90
63435;DHT22;68814;50.872;5.306;2023-11-19T00:59:02;13.30;99.90
63435;DHT22;68814;50.872;5.306;2023-11-19T01:01:29;13.20;99.90
63435;DHT22;68814;50.872;5.306;2023-11-19T01:03:55;13.30;99.90
63435;DHT22;68814;50.872;5.306;2023-11-19T01:06:31;13.20;99.90
63435;DHT22;68814;50.872;5.306;2023-11-19T01:08:57;13.20;99.90
63435;DHT22;68814;50.872;5.306;2023-11-19T01:11:24;13.30;99.90
63435;DHT22;68814;50.872;5.306;2023-11-19T01:13:50;13.30;99.90
63435;DHT22;68814;50.872;5.306;2023-11-19T01:16:16;13.30;99.90
63435;DHT22;68814;50.872;5.306;2023-11-19T01:18:42;13.30;99.90
63435;DHT22;68814;50.872;5.306;2023-11-19T01:21:07;13.30;99.90
63435;DHT22;68814;50.872;5.306;2023-11-19T01:23:34;13.40;99.90
63435;DHT22;68814;50.872;5.306;2023-11-19T01:26:00;13.40;99.90
63435;DHT22;68814;50.872;5.306;2023-11-19T01:28:25;13.40;99.90
63435;DHT22;68814;50.872;5.306;2023-11-19T01:30:51;13.40;99.90
63435;DHT22;68814;50.872;5.306;2023-11-19T01:33:17;13.40;99.90
63435;DHT22;68814;50.872;5.306;2023-11-19T01:35:43;13.40;99.90
63435;DHT22;68814;50.872;5.306;2023-11-19T01:38:08;13.40;99.90
63435;DHT22;68814;50.872;5.306;2023-11-19T01:40:34;13.40;99.90
63435;DHT22;68814;50.872;5.306;2023-11-19T01:43:02;13.40;99.90
63435;DHT22;68814;50.872;5.306;2023-11-19T01:45:29;13.40;99.90
63435;DHT22;68814;50.872;5.306;2023-11-19T01:47:59;13.40;99.90
63435;DHT22;68814;50.872;5.306;2023-11-19T01:50:26;13.40;99.90
63435;DHT22;68814;50.872;5.306;2023-11-19T01:52:54;13.40;99.90
63435;DHT22;68814;50.872;5.306;2023-11-19T01:55:24;13.40;99.90
63435;DHT22;68814;50.872;5.306;2023-11-19T01:57:52;13.40;99.90
63435;DHT22;68814;50.872;5.306;2023-11-19T02:00:19;13.40;99.90
63435;DHT22;68814;50.872;5.306;2023-11-19T02:02:46;13.50;99.90
63435;DHT22;68814;50.872;5.306;2023-11-19T02:05:14;13.50;99.90
63435;DHT22;68814;50.872;5.306;2023-11-19T02:07:40;13.50;99.90
63435;DHT22;68814;50.872;5.306;2023-11-19T02:10:06;13.50;99.90
63435;DHT22;68814;50.872;5.306;2023-11-19T02:12:33;13.50;99.90
63435;DHT22;68814;50.872;5.306;2023-11-19T02:14:59;13.50;99.90
63435;DHT22;68814;50.872;5.306;2023-11-19T02:17:29;13.50;99.90
63435;DHT22;68814;50.872;5.306;2023-11-19T02:20:00;13.50;99.90
63435;DHT22;68814;50.872;5.306;2023-11-19T02:22:25;13.50;99.90
63435;DHT22;68814;50.872;5.306;2023-11-19T02:24:54;13.50;99.90
63435;DHT22;68814;50.872;5.306;2023-11-19T02:30:07;13.50;99.90
63435;DHT22;68814;50.872;5.306;2023-11-19T02:32:34;13.50;99.90
63435;DHT22;68814;50.872;5.306;2023-11-19T02:35:01;13.50;99.90
63435;DHT22;68814;50.872;5.306;2023-11-19T02:37:27;13.50;99.90
63435;DHT22;68814;50.872;5.306;2023-11-19T02:39:53;13.50;99.90
63435;DHT22;68814;50.872;5.306;2023-11-19T02:42:19;13.50;99.90
63435;DHT22;68814;50.872;5.306;2023-11-19T02:44:45;13.50;99.90
63435;DHT22;68814;50.872;5.306;2023-11-19T02:47:11;13.50;99.90
63435;DHT22;68814;50.872;5.306;2023-11-19T02:49:37;13.40;99.90
63435;DHT22;68814;50.872;5.306;2023-11-19T02:52:03;13.40;99.90
63435;DHT22;68814;50.872;5.306;2023-11-19T02:54:31;13.40;99.90
63435;DHT22;68814;50.872;5.306;2023-11-19T02:57:00;13.40;99.90
63435;DHT22;68814;50.872;5.306;2023-11-19T02:59:27;13.40;99.90
63435;DHT22;68814;50.872;5.306;2023-11-19T03:01:57;13.40;99.90
63435;DHT22;68814;50.872;5.306;2023-11-19T03:04:25;13.30;99.90
63435;DHT22;68814;50.872;5.306;2023-11-19T03:06:51;13.40;99.90
63435;DHT22;68814;50.872;5.306;2023-11-19T03:09:18;13.40;99.90
63435;DHT22;68814;50.872;5.306;2023-11-19T03:11:44;13.30;99.90
63435;DHT22;68814;50.872;5.306;2023-11-19T03:14:10;13.30;99.90
63435;DHT22;68814;50.872;5.306;2023-11-19T03:16:35;13.30;99.90
63435;DHT22;68814;50.872;5.306;2023-11-19T03:19:01;13.30;99.90
63435;DHT22;68814;50.872;5.306;2023-11-19T03:21:30;13.20;99.90
63435;DHT22;68814;50.872;5.306;2023-11-19T03:23:57;13.20;99.90
63435;DHT22;68814;50.872;5.306;2023-11-19T03:26:26;13.10;99.90
63435;DHT22;68814;50.872;5.306;2023-11-19T03:28:52;13.10;99.90
63435;DHT22;68814;50.872;5.306;2023-11-19T03:31:18;13.10;99.90
63435;DHT22;68814;50.872;5.306;2023-11-19T03:33:44;13.00;99.90
63435;DHT22;68814;50.872;5.306;2023-11-19T03:36:10;13.00;99.90
63435;DHT22;68814;50.872;5.306;2023-11-19T03:38:36;12.90;99.90
63435;DHT22;68814;50.872;5.306;2023-11-19T03:41:18;12.90;99.90
63435;DHT22;68814;50.872;5.306;2023-11-19T03:43:45;12.80;99.90
63435;DHT22;68814;50.872;5.306;2023-11-19T03:46:18;12.80;99.90
63435;DHT22;68814;50.872;5.306;2023-11-19T03:48:43;12.80;99.90
63435;DHT22;68814;50.872;5.306;2023-11-19T03:51:09;12.70;99.90
63435;DHT22;68814;50.872;5.306;2023-11-19T03:53:35;12.70;99.90
63435;DHT22;68814;50.872;5.306;2023-11-19T03:56:01;12.60;99.90
63435;DHT22;68814;50.872;5.306;2023-11-19T03:58:26;12.60;99.90
63435;DHT22;68814;50.872;5.306;2023-11-19T04:00:52;12.60;99.90
63435;DHT22;68814;50.872;5.306;2023-11-19T04:03:18;12.60;99.90
63435;DHT22;68814;50.872;5.306;2023-11-19T04:05:45;12.60;99.90
63435;DHT22;68814;50.872;5.306;2023-11-19T04:08:10;12.50;99.90
63435;DHT22;68814;50.872;5.306;2023-11-19T04:10:36;12.50;99.90
63435;DHT22;68814;50.872;5.306;2023-11-19T04:13:01;12.50;99.90
63435;DHT22;68814;50.872;5.306;2023-11-19T04:15:27;12.50;99.90
63435;DHT22;68814;50.872;5.306;2023-11-19T04:17:53;12.40;99.90
63435;DHT22;68814;50.872;5.306;2023-11-19T04:20:18;12.40;99.90
63435;DHT22;68814;50.872;5.306;2023-11-19T04:22:44;12.40;99.90
63435;DHT22;68814;50.872;5.306;2023-11-19T04:25:10;12.40;99.90
63435;DHT22;68814;50.872;5.306;2023-11-19T04:27:36;12.40;99.90
63435;DHT22;68814;50.872;5.306;2023-11-19T04:30:02;12.30;99.90
63435;DHT22;68814;50.872;5.306;2023-11-19T04:32:29;12.30;99.90
63435;DHT22;68814;50.872;5.306;2023-11-19T04:34:54;12.30;99.90
63435;DHT22;68814;50.872;5.306;2023-11-19T04:37:20;12.20;99.90
63435;DHT22;68814;50.872;5.306;2023-11-19T04:39:46;12.20;99.90
63435;DHT22;68814;50.872;5.306;2023-11-19T04:42:11;12.20;99.90
63435;DHT22;68814;50.872;5.306;2023-11-19T04:44:37;12.20;99.90
63435;DHT22;68814;50.872;5.306;2023-11-19T04:47:03;12.20;99.90
63435;DHT22;68814;50.872;5.306;2023-11-19T04:49:29;12.20;99.90
63435;DHT22;68814;50.872;5.306;2023-11-19T04:51:56;12.20;99.90
63435;DHT22;68814;50.872;5.306;2023-11-19T04:54:21;12.20;99.90
63435;DHT22;68814;50.872;5.306;2023-11-19T04:56:47;12.20;99.90
63435;DHT22;68814;50.872;5.306;2023-11-19T04:59:14;12.20;99.90
63435;DHT22;68814;50.872;5.306;2023-11-19T05:01:39;12.10;99.90
63435;DHT22;68814;50.872;5.306;2023-11-19T05:04:07;12.10;99.90
63435;DHT22;68814;50.872;5.306;2023-11-19T05:06:32;12.10;99.90
63435;DHT22;68814;50.872;5.306;2023-11-19T05:08:59;12.10;99.90
63435;DHT22;68814;50.872;5.306;2023-11-19T05:11:34;12.20;99.90
63435;DHT22;68814;50.872;5.306;2023-11-19T05:14:02;12.20;99.90
63435;DHT22;68814;50.872;5.306;2023-11-19T05:16:29;12.20;99.90
63435;DHT22;68814;50.872;5.306;2023-11-19T05:18:55;12.30;99.90
63435;DHT22;68814;50.872;5.306;2023-11-19T05:21:20;12.30;99.90
63435;DHT22;68814;50.872;5.306;2023-11-19T05:23:46;12.30;99.90
63435;DHT22;68814;50.872;5.306;2023-11-19T05:26:19;12.30;99.90
63435;DHT22;68814;50.872;5.306;2023-11-19T05:28:45;12.30;99.90
63435;DHT22;68814;50.872;5.306;2023-11-19T05:31:11;12.30;99.90
63435;DHT22;68814;50.872;5.306;2023-11-19T05:33:36;12.30;99.90
63435;DHT22;68814;50.872;5.306;2023-11-19T05:36:03;12.30;99.90
63435;DHT22;68814;50.872;5.306;2023-11-19T05:38:29;12.30;99.90
63435;DHT22;68814;50.872;5.306;2023-11-19T05:40:55;12.30;99.90
63435;DHT22;68814;50.872;5.306;2023-11-19T05:43:21;12.30;99.90
63435;DHT22;68814;50.872;5.306;2023-11-19T05:45:47;12.30;99.90
63435;DHT22;68814;50.872;5.306;2023-11-19T05:48:12;12.30;99.90
63435;DHT22;68814;50.872;5.306;2023-11-19T05:50:39;12.30;99.90
63435;DHT22;68814;50.872;5.306;2023-11-19T05:53:05;12.30;99.90
63435;DHT22;68814;50.872;5.306;2023-11-19T05:55:33;12.30;99.90
63435;DHT22;68814;50.872;5.306;2023-11-19T05:58:00;12.30;99.90
63435;DHT22;68814;50.872;5.306;2023-11-19T06:00:25;12.30;99.90
63435;DHT22;68814;50.872;5.306;2023-11-19T06:02:52;12.30;99.90
63435;DHT22;68814;50.872;5.306;2023-11-19T06:05:18;12.20;99.90
63435;DHT22;68814;50.872;5.306;2023-11-19T06:07:43;12.10;99.90
63435;DHT22;68814;50.872;5.306;2023-11-19T06:10:09;12.10;99.90
63435;DHT22;68814;50.872;5.306;2023-11-19T06:12:36;12.10;99.90
63435;DHT22;68814;50.872;5.306;2023-11-19T06:15:04;12.00;99.90
63435;DHT22;68814;50.872;5.306;2023-11-19T06:17:30;12.00;99.90
63435;DHT22;68814;50.872;5.306;2023-11-19T06:19:56;12.00;99.90
63435;DHT22;68814;50.872;5.306;2023-11-19T06:22:21;11.90;99.90
63435;DHT22;68814;50.872;5.306;2023-11-19T06:24:47;11.90;99.90
63435;DHT22;68814;50.872;5.306;2023-11-19T06:27:13;11.90;99.90
63435;DHT22;68814;50.872;5.306;2023-11-19T06:29:38;11.80;99.90
63435;DHT22;68814;50.872;5.306;2023-11-19T06:32:06;11.80;99.90
63435;DHT22;68814;50.872;5.306;2023-11-19T06:34:33;11.80;99.90
63435;DHT22;68814;50.872;5.306;2023-11-19T06:36:59;11.70;99.90
63435;DHT22;68814;50.872;5.306;2023-11-19T06:39:25;11.70;99.90
63435;DHT22;68814;50.872;5.306;2023-11-19T06:41:51;11.70;99.90
63435;DHT22;68814;50.872;5.306;2023-11-19T06:44:17;11.70;99.90
63435;DHT22;68814;50.872;5.306;2023-11-19T06:46:43;11.70;99.90
63435;DHT22;68814;50.872;5.306;2023-11-19T06:49:09;11.60;99.90
63435;DHT22;68814;50.872;5.306;2023-11-19T06:51:34;11.60;99.90
63435;DHT22;68814;50.872;5.306;2023-11-19T06:54:00;11.60;99.90
63435;DHT22;68814;50.872;5.306;2023-11-19T06:56:26;11.60;99.90
63435;DHT22;68814;50.872;5.306;2023-11-19T06:58:52;11.60;99.90
63435;DHT22;68814;50.872;5.306;2023-11-19T07:01:19;11.60;99.90
63435;DHT22;68814;50.872;5.306;2023-11-19T07:03:45;11.60;99.90
63435;DHT22;68814;50.872;5.306;2023-11-19T07:06:14;11.60;99.90
63435;DHT22;68814;50.872;5.306;2023-11-19T07:08:43;11.50;99.90
63435;DHT22;68814;50.872;5.306;2023-11-19T07:11:12;11.60;99.90
63435;DHT22;68814;50.872;5.306;2023-11-19T07:13:40;11.50;99.90
63435;DHT22;68814;50.872;5.306;2023-11-19T07:16:07;11.50;99.90
63435;DHT22;68814;50.872;5.306;2023-11-19T07:18:35;11.50;99.90
63435;DHT22;68814;50.872;5.306;2023-11-19T07:21:01;11.40;99.90
63435;DHT22;68814;50.872;5.306;2023-11-19T07:26:06;11.40;99.90
63435;DHT22;68814;50.872;5.306;2023-11-19T07:28:36;11.40;99.90
63435;DHT22;68814;50.872;5.306;2023-11-19T07:31:02;11.40;99.90
63435;DHT22;68814;50.872;5.306;2023-11-19T07:33:27;11.40;99.90
63435;DHT22;68814;50.872;5.306;2023-11-19T07:35:53;11.40;99.90
63435;DHT22;68814;50.872;5.306;2023-11-19T07:38:19;11.40;99.90
63435;DHT22;68814;50.872;5.306;2023-11-19T07:40:44;11.40;99.90
63435;DHT22;68814;50.872;5.306;2023-11-19T07:43:10;11.40;99.90
63435;DHT22;68814;50.872;5.306;2023-11-19T07:45:37;11.40;99.90
63435;DHT22;68814;50.872;5.306;2023-11-19T07:48:02;11.40;99.90
63435;DHT22;68814;50.872;5.306;2023-11-19T07:50:28;11.40;99.90
63435;DHT22;68814;50.872;5.306;2023-11-19T07:52:57;11.40;99.90
63435;DHT22;68814;50.872;5.306;2023-11-19T07:55:22;11.50;99.90
63435;DHT22;68814;50.872;5.306;2023-11-19T07:57:48;11.40;99.90
63435;DHT22;68814;50.872;5.306;2023-11-19T08:00:15;11.40;99.90
63435;DHT22;68814;50.872;5.306;2023-11-19T08:02:42;11.50;99.90
63435;DHT22;68814;50.872;5.306;2023-11-19T08:05:07;11.50;99.90
63435;DHT22;68814;50.872;5.306;2023-11-19T08:07:33;11.50;99.90
63435;DHT22;68814;50.872;5.306;2023-11-19T08:09:59;11.50;99.90
63435;DHT22;68814;50.872;5.306;2023-11-19T08:12:25;11.60;99.90
63435;DHT22;68814;50.872;5.306;2023-11-19T08:14:51;11.60;99.90
63435;DHT22;68814;50.872;5.306;2023-11-19T08:17:16;11.60;99.90
63435;DHT22;68814;50.872;5.306;2023-11-19T08:19:42;11.70;99.90
63435;DHT22;68814;50.872;5.306;2023-11-19T08:22:08;11.70;99.90
63435;DHT22;68814;50.872;5.306;2023-11-19T08:24:35;11.70;99.90
63435;DHT22;68814;50.872;5.306;2023-11-19T08:27:00;11.80;99.90
63435;DHT22;68814;50.872;5.306;2023-11-19T08:29:26;11.80;99.90
63435;DHT22;68814;50.872;5.306;2023-11-19T08:31:53;11.80;99.90
63435;DHT22;68814;50.872;5.306;2023-11-19T08:34:18;11.90;99.90
63435;DHT22;68814;50.872;5.306;2023-11-19T08:36:44;11.90;99.90
63435;DHT22;68814;50.872;5.306;2023-11-19T08:39:09;12.00;99.90
63435;DHT22;68814;50.872;5.306;2023-11-19T08:41:35;12.00;99.90
63435;DHT22;68814;50.872;5.306;2023-11-19T08:44:02;12.10;99.90
63435;DHT22;68814;50.872;5.306;2023-11-19T08:46:28;12.00;99.90
63435;DHT22;68814;50.872;5.306;2023-11-19T08:48:53;12.10;99.90
63435;DHT22;68814;50.872;5.306;2023-11-19T08:51:23;12.10;99.90
63435;DHT22;68814;50.872;5.306;2023-11-19T09:48:12;13.00;99.90
63435;DHT22;68814;50.872;5.306;2023-11-19T10:48:13;13.80;99.90
63435;DHT22;68814;50.872;5.306;2023-11-19T10:50:40;13.90;99.90
63435;DHT22;68814;50.872;5.306;2023-11-19T10:53:09;14.10;99.90
63435;DHT22;68814;50.872;5.306;2023-11-19T10:55:38;14.10;99.90
63435;DHT22;68814;50.872;5.306;2023-11-19T10:58:07;14.20;99.90
63435;DHT22;68814;50.872;5.306;2023-11-19T11:03:21;14.20;99.90
63435;DHT22;68814;50.872;5.306;2023-11-19T11:05:51;14.30;99.90
63435;DHT22;68814;50.872;5.306;2023-11-19T11:08:19;14.40;99.90
63435;DHT22;68814;50.872;5.306;2023-11-19T11:10:55;14.40;99.90
63435;DHT22;68814;50.872;5.306;2023-11-19T11:13:23;14.50;99.90
63435;DHT22;68814;50.872;5.306;2023-11-19T11:15:50;14.50;99.90
63435;DHT22;68814;50.872;5.306;2023-11-19T11:21:24;14.40;99.90
63435;DHT22;68814;50.872;5.306;2023-11-19T12:19:22;14.20;99.90
63435;DHT22;68814;50.872;5.306;2023-11-19T12:21:48;14.30;99.90
63435;DHT22;68814;50.872;5.306;2023-11-19T12:24:13;14.50;99.90
63435;DHT22;68814;50.872;5.306;2023-11-19T12:26:41;14.60;99.90
63435;DHT22;68814;50.872;5.306;2023-11-19T12:29:08;14.80;99.90
63435;DHT22;68814;50.872;5.306;2023-11-19T12:31:34;14.80;99.90
63435;DHT22;68814;50.872;5.306;2023-11-19T12:34:04;14.90;99.90
63435;DHT22;68814;50.872;5.306;2023-11-19T12:36:30;14.90;99.90
63435;DHT22;68814;50.872;5.306;2023-11-19T12:38:58;15.00;99.90
63435;DHT22;68814;50.872;5.306;2023-11-19T12:41:23;15.20;99.90
63435;DHT22;68814;50.872;5.306;2023-11-19T12:43:50;15.30;99.90
63435;DHT22;68814;50.872;5.306;2023-11-19T12:46:22;15.50;99.90
63435;DHT22;68814;50.872;5.306;2023-11-19T12:48:50;15.60;99.90
63435;DHT22;68814;50.872;5.306;2023-11-19T12:51:16;15.60;99.90
63435;DHT22;68814;50.872;5.306;2023-11-19T12:53:54;15.60;99.90
63435;DHT22;68814;50.872;5.306;2023-11-19T12:56:20;15.60;99.90
63435;DHT22;68814;50.872;5.306;2023-11-19T13:30:43;13.70;99.90
63435;DHT22;68814;50.872;5.306;2023-11-19T13:41:02;13.70;99.90
63435;DHT22;68814;50.872;5.306;2023-11-19T14:01:36;14.30;99.90
63435;DHT22;68814;50.872;5.306;2023-11-19T14:11:54;13.90;99.90
63435;DHT22;68814;50.872;5.306;2023-11-19T14:22:06;13.40;99.90
63435;DHT22;68814;50.872;5.306;2023-11-19T14:24:32;13.40;99.90
63435;DHT22;68814;50.872;5.306;2023-11-19T14:50:16;13.40;99.90
63435;DHT22;68814;50.872;5.306;2023-11-19T15:08:14;13.20;99.90
63435;DHT22;68814;50.872;5.306;2023-11-19T15:10:42;13.20;99.90
63435;DHT22;68814;50.872;5.306;2023-11-19T15:13:08;13.10;99.90
63435;DHT22;68814;50.872;5.306;2023-11-19T15:15:34;13.10;99.90
63435;DHT22;68814;50.872;5.306;2023-11-19T15:18:00;13.10;99.90
63435;DHT22;68814;50.872;5.306;2023-11-19T15:20:26;13.10;99.90
63435;DHT22;68814;50.872;5.306;2023-11-19T15:22:56;13.10;99.90
63435;DHT22;68814;50.872;5.306;2023-11-19T15:25:22;13.10;99.90
63435;DHT22;68814;50.872;5.306;2023-11-19T15:27:49;13.10;99.90
63435;DHT22;68814;50.872;5.306;2023-11-19T15:32:50;13.10;99.90
63435;DHT22;68814;50.872;5.306;2023-11-19T15:37:52;13.10;99.90
63435;DHT22;68814;50.872;5.306;2023-11-19T15:43:33;13.00;99.90
63435;DHT22;68814;50.872;5.306;2023-11-19T15:51:12;12.90;99.90
63435;DHT22;68814;50.872;5.306;2023-11-19T16:09:10;12.80;99.90
63435;DHT22;68814;50.872;5.306;2023-11-19T16:14:18;12.80;99.90
63435;DHT22;68814;50.872;5.306;2023-11-19T18:00:14;12.10;99.90
63435;DHT22;68814;50.872;5.306;2023-11-19T18:02:47;12.10;99.90
63435;DHT22;68814;50.872;5.306;2023-11-19T18:05:14;12.10;99.90
63435;DHT22;68814;50.872;5.306;2023-11-19T18:07:41;12.10;99.90
63435;DHT22;68814;50.872;5.306;2023-11-19T18:10:08;12.10;99.90
63435;DHT22;68814;50.872;5.306;2023-11-19T18:12:34;12.10;99.90
63435;DHT22;68814;50.872;5.306;2023-11-19T18:15:00;12.10;99.90
63435;DHT22;68814;50.872;5.306;2023-11-19T18:17:26;12.10;99.90
63435;DHT22;68814;50.872;5.306;2023-11-19T18:19:52;12.10;99.90
63435;DHT22;68814;50.872;5.306;2023-11-19T18:22:17;12.00;99.90
63435;DHT22;68814;50.872;5.306;2023-11-19T18:24:43;12.10;99.90
63435;DHT22;68814;50.872;5.306;2023-11-19T18:27:09;12.10;99.90
63435;DHT22;68814;50.872;5.306;2023-11-19T18:29:35;12.10;99.90
63435;DHT22;68814;50.872;5.306;2023-11-19T18:32:01;12.10;99.90
63435;DHT22;68814;50.872;5.306;2023-11-19T18:34:28;12.00;99.90
63435;DHT22;68814;50.872;5.306;2023-11-19T18:36:53;12.00;99.90
63435;DHT22;68814;50.872;5.306;2023-11-19T18:39:19;12.00;99.90
63435;DHT22;68814;50.872;5.306;2023-11-19T18:41:45;12.00;99.90
63435;DHT22;68814;50.872;5.306;2023-11-19T18:44:11;12.00;99.90
63435;DHT22;68814;50.872;5.306;2023-11-19T18:46:38;12.00;99.90
63435;DHT22;68814;50.872;5.306;2023-11-19T18:49:04;12.00;99.90
63435;DHT22;68814;50.872;5.306;2023-11-19T18:51:31;11.90;99.90
63435;DHT22;68814;50.872;5.306;2023-11-19T18:53:57;11.90;99.90
63435;DHT22;68814;50.872;5.306;2023-11-19T18:56:23;11.90;99.90
63435;DHT22;68814;50.872;5.306;2023-11-19T18:58:49;11.90;99.90
63435;DHT22;68814;50.872;5.306;2023-11-19T19:01:15;11.80;99.90
63435;DHT22;68814;50.872;5.306;2023-11-19T19:03:48;11.80;99.90
63435;DHT22;68814;50.872;5.306;2023-11-19T19:06:14;11.80;99.90
63435;DHT22;68814;50.872;5.306;2023-11-19T19:08:41;11.70;99.90
63435;DHT22;68814;50.872;5.306;2023-11-19T19:11:11;11.70;99.90
63435;DHT22;68814;50.872;5.306;2023-11-19T19:13:38;11.70;99.90
63435;DHT22;68814;50.872;5.306;2023-11-19T19:16:07;11.70;99.90
63435;DHT22;68814;50.872;5.306;2023-11-19T19:18:33;11.70;99.90
63435;DHT22;68814;50.872;5.306;2023-11-19T19:21:01;11.70;99.90
63435;DHT22;68814;50.872;5.306;2023-11-19T19:23:26;11.70;99.90
63435;DHT22;68814;50.872;5.306;2023-11-19T19:25:54;11.70;99.90
63435;DHT22;68814;50.872;5.306;2023-11-19T19:28:20;11.70;99.90
63435;DHT22;68814;50.872;5.306;2023-11-19T19:30:46;11.80;99.90
63435;DHT22;68814;50.872;5.306;2023-11-19T19:33:13;11.80;99.90
63435;DHT22;68814;50.872;5.306;2023-11-19T19:35:39;11.80;99.90
63435;DHT22;68814;50.872;5.306;2023-11-19T19:38:05;11.80;99.90
63435;DHT22;68814;50.872;5.306;2023-11-19T19:40:33;11.80;99.90
63435;DHT22;68814;50.872;5.306;2023-11-19T19:42:59;11.90;99.90
63435;DHT22;68814;50.872;5.306;2023-11-19T19:45:25;11.90;99.90
63435;DHT22;68814;50.872;5.306;2023-11-19T19:47:51;11.90;99.90
63435;DHT22;68814;50.872;5.306;2023-11-19T19:50:18;11.90;99.90
63435;DHT22;68814;50.872;5.306;2023-11-19T19:52:44;11.90;99.90
63435;DHT22;68814;50.872;5.306;2023-11-19T19:55:10;11.90;99.90
63435;DHT22;68814;50.872;5.306;2023-11-19T19:57:35;11.90;99.90
63435;DHT22;68814;50.872;5.306;2023-11-19T20:00:04;11.90;99.90
63435;DHT22;68814;50.872;5.306;2023-11-19T20:02:35;11.90;99.90
63435;DHT22;68814;50.872;5.306;2023-11-19T20:05:01;11.90;99.90
63435;DHT22;68814;50.872;5.306;2023-11-19T20:07:26;11.90;99.90
63435;DHT22;68814;50.872;5.306;2023-11-19T20:09:52;11.90;99.90
63435;DHT22;68814;50.872;5.306;2023-11-19T20:12:18;11.90;99.90
63435;DHT22;68814;50.872;5.306;2023-11-19T20:14:44;11.90;99.90
63435;DHT22;68814;50.872;5.306;2023-11-19T20:17:10;11.90;99.90
63435;DHT22;68814;50.872;5.306;2023-11-19T20:19:37;11.90;99.90
63435;DHT22;68814;50.872;5.306;2023-11-19T20:22:04;11.90;99.90
63435;DHT22;68814;50.872;5.306;2023-11-19T20:24:30;11.90;99.90
63435;DHT22;68814;50.872;5.306;2023-11-19T20:26:59;11.90;99.90
63435;DHT22;68814;50.872;5.306;2023-11-19T20:29:24;11.90;99.90
63435;DHT22;68814;50.872;5.306;2023-11-19T20:31:50;11.90;99.90
63435;DHT22;68814;50.872;5.306;2023-11-19T20:34:16;11.80;99.90
63435;DHT22;68814;50.872;5.306;2023-11-19T20:36:42;11.80;99.90
63435;DHT22;68814;50.872;5.306;2023-11-19T20:39:08;11.90;99.90
63435;DHT22;68814;50.872;5.306;2023-11-19T20:41:34;11.80;99.90
63435;DHT22;68814;50.872;5.306;2023-11-19T20:43:59;11.80;99.90
63435;DHT22;68814;50.872;5.306;2023-11-19T20:46:25;11.80;99.90
63435;DHT22;68814;50.872;5.306;2023-11-19T20:48:51;11.80;99.90
63435;DHT22;68814;50.872;5.306;2023-11-19T20:51:17;11.80;99.90
63435;DHT22;68814;50.872;5.306;2023-11-19T20:53:44;11.80;99.90
63435;DHT22;68814;50.872;5.306;2023-11-19T20:56:09;11.80;99.90
63435;DHT22;68814;50.872;5.306;2023-11-19T20:58:35;11.70;99.90
63435;DHT22;68814;50.872;5.306;2023-11-19T21:01:01;11.70;99.90
63435;DHT22;68814;50.872;5.306;2023-11-19T21:03:31;11.70;99.90
63435;DHT22;68814;50.872;5.306;2023-11-19T21:06:03;11.70;99.90
63435;DHT22;68814;50.872;5.306;2023-11-19T21:08:29;11.70;99.90
63435;DHT22;68814;50.872;5.306;2023-11-19T21:10:55;11.60;99.90
63435;DHT22;68814;50.872;5.306;2023-11-19T21:13:23;11.60;99.90
63435;DHT22;68814;50.872;5.306;2023-11-19T21:15:50;11.60;99.90
63435;DHT22;68814;50.872;5.306;2023-11-19T21:18:15;11.60;99.90
63435;DHT22;68814;50.872;5.306;2023-11-19T21:20:41;11.60;99.90
63435;DHT22;68814;50.872;5.306;2023-11-19T21:23:08;11.50;99.90
63435;DHT22;68814;50.872;5.306;2023-11-19T21:25:34;11.60;99.90
63435;DHT22;68814;50.872;5.306;2023-11-19T21:28:00;11.60;99.90
63435;DHT22;68814;50.872;5.306;2023-11-19T21:30:25;11.60;99.90
63435;DHT22;68814;50.872;5.306;2023-11-19T21:32:51;11.50;99.90
63435;DHT22;68814;50.872;5.306;2023-11-19T21:35:18;11.60;99.90
63435;DHT22;68814;50.872;5.306;2023-11-19T21:37:43;11.60;99.90
63435;DHT22;68814;50.872;5.306;2023-11-19T21:40:10;11.60;99.90
63435;DHT22;68814;50.872;5.306;2023-11-19T21:42:36;11.50;99.90
63435;DHT22;68814;50.872;5.306;2023-11-19T21:45:03;11.50;99.90
63435;DHT22;68814;50.872;5.306;2023-11-19T21:47:29;11.50;99.90
63435;DHT22;68814;50.872;5.306;2023-11-19T21:49:55;11.40;99.90
63435;DHT22;68814;50.872;5.306;2023-11-19T21:52:21;11.40;99.90
63435;DHT22;68814;50.872;5.306;2023-11-19T21:54:47;11.30;99.90
63435;DHT22;68814;50.872;5.306;2023-11-19T21:57:16;11.30;99.90
63435;DHT22;68814;50.872;5.306;2023-11-19T21:59:42;11.30;99.90
63435;DHT22;68814;50.872;5.306;2023-11-19T22:02:11;11.30;99.90
63435;DHT22;68814;50.872;5.306;2023-11-19T22:04:36;11.30;99.90
63435;DHT22;68814;50.872;5.306;2023-11-19T22:07:02;11.30;99.90
63435;DHT22;68814;50.872;5.306;2023-11-19T22:09:28;11.30;99.90
63435;DHT22;68814;50.872;5.306;2023-11-19T22:11:54;11.40;99.90
